sensor_id;sensor_type;location;lat;lon;timestamp;P1;durP1;ratioP1;P2;durP2;ratioP2
18435;SDS011;9346;52.006;4.720;2023-03-20T00:00:19;7.27;;;3.27;;
18435;SDS011;9346;52.006;4.720;2023-03-20T00:02:52;8.77;;;3.87;;
18435;SDS011;9346;52.006;4.720;2023-03-20T00:05:19;8.50;;;4.27;;
18435;SDS011;9346;52.006;4.720;2023-03-20T00:07:47;7.17;;;4.23;;
18435;SDS011;9346;52.006;4.720;2023-03-20T00:10:16;14.37;;;4.93;;
18435;SDS011;9346;52.006;4.720;2023-03-20T00:12:44;11.20;;;4.60;;
18435;SDS011;9346;52.006;4.720;2023-03-20T00:15:23;9.07;;;4.43;;
18435;SDS011;9346;52.006;4.720;2023-03-20T00:17:54;12.03;;;4.80;;
18435;SDS011;9346;52.006;4.720;2023-03-20T00:20:22;13.70;;;5.07;;
18435;SDS011;9346;52.006;4.720;2023-03-20T00:22:49;8.63;;;3.90;;
18435;SDS011;9346;52.006;4.720;2023-03-20T00:25:18;11.23;;;4.63;;
18435;SDS011;9346;52.006;4.720;2023-03-20T00:27:46;9.03;;;4.67;;
18435;SDS011;9346;52.006;4.720;2023-03-20T00:30:21;13.47;;;5.67;;
18435;SDS011;9346;52.006;4.720;2023-03-20T00:32:50;16.60;;;4.60;;
18435;SDS011;9346;52.006;4.720;2023-03-20T00:38:02;11.23;;;5.33;;
18435;SDS011;9346;52.006;4.720;2023-03-20T00:40:29;15.10;;;4.90;;
18435;SDS011;9346;52.006;4.720;2023-03-20T00:42:58;20.07;;;6.20;;
18435;SDS011;9346;52.006;4.720;2023-03-20T00:45:26;13.03;;;5.67;;
18435;SDS011;9346;52.006;4.720;2023-03-20T00:47:55;14.30;;;5.30;;
18435;SDS011;9346;52.006;4.720;2023-03-20T00:50:23;14.93;;;4.93;;
18435;SDS011;9346;52.006;4.720;2023-03-20T00:52:53;15.93;;;5.70;;
18435;SDS011;9346;52.006;4.720;2023-03-20T00:55:22;13.53;;;5.20;;
18435;SDS011;9346;52.006;4.720;2023-03-20T00:57:51;11.60;;;5.63;;
18435;SDS011;9346;52.006;4.720;2023-03-20T01:00:24;11.47;;;5.53;;
18435;SDS011;9346;52.006;4.720;2023-03-20T01:02:57;13.73;;;6.03;;
18435;SDS011;9346;52.006;4.720;2023-03-20T01:05:25;16.77;;;6.47;;
18435;SDS011;9346;52.006;4.720;2023-03-20T01:07:54;12.53;;;6.70;;
18435;SDS011;9346;52.006;4.720;2023-03-20T01:10:22;14.00;;;6.47;;
18435;SDS011;9346;52.006;4.720;2023-03-20T01:12:53;14.00;;;6.23;;
18435;SDS011;9346;52.006;4.720;2023-03-20T01:15:24;20.60;;;6.43;;
18435;SDS011;9346;52.006;4.720;2023-03-20T01:17:55;17.70;;;7.03;;
18435;SDS011;9346;52.006;4.720;2023-03-20T01:20:23;23.53;;;6.83;;
18435;SDS011;9346;52.006;4.720;2023-03-20T01:22:51;16.90;;;6.30;;
18435;SDS011;9346;52.006;4.720;2023-03-20T01:25:20;17.17;;;7.73;;
18435;SDS011;9346;52.006;4.720;2023-03-20T01:27:48;17.43;;;6.83;;
18435;SDS011;9346;52.006;4.720;2023-03-20T01:30:17;12.00;;;6.27;;
18435;SDS011;9346;52.006;4.720;2023-03-20T01:32:49;13.67;;;7.37;;
18435;SDS011;9346;52.006;4.720;2023-03-20T01:35:17;16.23;;;7.50;;
18435;SDS011;9346;52.006;4.720;2023-03-20T01:37:46;24.70;;;7.23;;
18435;SDS011;9346;52.006;4.720;2023-03-20T01:40:16;19.17;;;8.07;;
18435;SDS011;9346;52.006;4.720;2023-03-20T01:42:56;21.17;;;6.97;;
18435;SDS011;9346;52.006;4.720;2023-03-20T01:45:25;13.83;;;6.90;;
18435;SDS011;9346;52.006;4.720;2023-03-20T01:47:57;14.50;;;6.30;;
18435;SDS011;9346;52.006;4.720;2023-03-20T01:50:25;13.03;;;7.20;;
18435;SDS011;9346;52.006;4.720;2023-03-20T01:52:57;19.83;;;7.73;;
18435;SDS011;9346;52.006;4.720;2023-03-20T01:55:29;21.43;;;8.27;;
18435;SDS011;9346;52.006;4.720;2023-03-20T01:57:58;19.50;;;8.57;;
18435;SDS011;9346;52.006;4.720;2023-03-20T02:00:28;17.80;;;7.90;;
18435;SDS011;9346;52.006;4.720;2023-03-20T02:02:56;17.20;;;8.10;;
18435;SDS011;9346;52.006;4.720;2023-03-20T02:05:24;19.93;;;8.97;;
18435;SDS011;9346;52.006;4.720;2023-03-20T02:07:55;26.93;;;9.10;;
18435;SDS011;9346;52.006;4.720;2023-03-20T02:10:32;30.97;;;10.43;;
18435;SDS011;9346;52.006;4.720;2023-03-20T02:13:00;21.73;;;9.27;;
18435;SDS011;9346;52.006;4.720;2023-03-20T02:15:28;24.80;;;9.90;;
18435;SDS011;9346;52.006;4.720;2023-03-20T02:17:55;18.53;;;9.17;;
18435;SDS011;9346;52.006;4.720;2023-03-20T02:20:27;23.60;;;9.23;;
18435;SDS011;9346;52.006;4.720;2023-03-20T02:26:13;27.00;;;8.20;;
18435;SDS011;9346;52.006;4.720;2023-03-20T02:29:06;18.13;;;9.13;;
18435;SDS011;9346;52.006;4.720;2023-03-20T02:32:17;22.30;;;9.07;;
18435;SDS011;9346;52.006;4.720;2023-03-20T02:35:12;18.07;;;10.27;;
18435;SDS011;9346;52.006;4.720;2023-03-20T02:41:08;24.30;;;8.83;;
18435;SDS011;9346;52.006;4.720;2023-03-20T02:43:42;22.17;;;8.23;;
18435;SDS011;9346;52.006;4.720;2023-03-20T02:46:19;24.60;;;10.77;;
18435;SDS011;9346;52.006;4.720;2023-03-20T02:48:55;23.67;;;9.83;;
18435;SDS011;9346;52.006;4.720;2023-03-20T02:51:28;24.20;;;9.93;;
18435;SDS011;9346;52.006;4.720;2023-03-20T02:54:04;19.40;;;10.57;;
18435;SDS011;9346;52.006;4.720;2023-03-20T02:56:36;23.33;;;9.43;;
18435;SDS011;9346;52.006;4.720;2023-03-20T02:59:16;20.77;;;9.60;;
18435;SDS011;9346;52.006;4.720;2023-03-20T03:01:49;30.53;;;11.33;;
18435;SDS011;9346;52.006;4.720;2023-03-20T03:04:21;20.87;;;10.20;;
18435;SDS011;9346;52.006;4.720;2023-03-20T03:06:52;24.90;;;10.87;;
18435;SDS011;9346;52.006;4.720;2023-03-20T03:09:26;17.40;;;8.67;;
18435;SDS011;9346;52.006;4.720;2023-03-20T03:11:58;19.83;;;9.80;;
18435;SDS011;9346;52.006;4.720;2023-03-20T03:14:29;21.47;;;10.47;;
18435;SDS011;9346;52.006;4.720;2023-03-20T03:17:01;23.83;;;9.77;;
18435;SDS011;9346;52.006;4.720;2023-03-20T03:19:31;19.20;;;9.30;;
18435;SDS011;9346;52.006;4.720;2023-03-20T03:21:59;21.40;;;9.73;;
18435;SDS011;9346;52.006;4.720;2023-03-20T03:24:28;21.90;;;9.77;;
18435;SDS011;9346;52.006;4.720;2023-03-20T03:26:58;23.00;;;9.63;;
18435;SDS011;9346;52.006;4.720;2023-03-20T03:29:29;21.43;;;9.47;;
18435;SDS011;9346;52.006;4.720;2023-03-20T03:32:00;22.70;;;9.37;;
18435;SDS011;9346;52.006;4.720;2023-03-20T03:34:28;22.73;;;8.33;;
18435;SDS011;9346;52.006;4.720;2023-03-20T03:36:58;19.93;;;7.80;;
18435;SDS011;9346;52.006;4.720;2023-03-20T03:39:34;21.30;;;8.70;;
18435;SDS011;9346;52.006;4.720;2023-03-20T03:42:05;13.80;;;8.07;;
18435;SDS011;9346;52.006;4.720;2023-03-20T03:44:40;22.30;;;7.87;;
18435;SDS011;9346;52.006;4.720;2023-03-20T03:47:11;16.40;;;8.03;;
18435;SDS011;9346;52.006;4.720;2023-03-20T03:49:44;15.77;;;7.97;;
18435;SDS011;9346;52.006;4.720;2023-03-20T03:52:16;11.03;;;7.10;;
18435;SDS011;9346;52.006;4.720;2023-03-20T03:54:49;17.20;;;7.93;;
18435;SDS011;9346;52.006;4.720;2023-03-20T03:57:20;17.07;;;8.03;;
18435;SDS011;9346;52.006;4.720;2023-03-20T03:59:53;21.40;;;8.83;;
18435;SDS011;9346;52.006;4.720;2023-03-20T04:02:23;18.20;;;8.77;;
18435;SDS011;9346;52.006;4.720;2023-03-20T04:04:50;18.53;;;9.13;;
18435;SDS011;9346;52.006;4.720;2023-03-20T04:07:19;15.13;;;7.90;;
18435;SDS011;9346;52.006;4.720;2023-03-20T04:09:48;16.57;;;8.37;;
18435;SDS011;9346;52.006;4.720;2023-03-20T04:12:29;18.07;;;8.90;;
18435;SDS011;9346;52.006;4.720;2023-03-20T04:14:59;21.07;;;9.10;;
18435;SDS011;9346;52.006;4.720;2023-03-20T04:17:26;28.27;;;9.87;;
18435;SDS011;9346;52.006;4.720;2023-03-20T04:19:53;14.13;;;8.27;;
18435;SDS011;9346;52.006;4.720;2023-03-20T04:22:21;15.20;;;8.00;;
18435;SDS011;9346;52.006;4.720;2023-03-20T04:24:49;18.73;;;9.20;;
18435;SDS011;9346;52.006;4.720;2023-03-20T04:27:16;20.10;;;9.50;;
18435;SDS011;9346;52.006;4.720;2023-03-20T04:29:43;20.27;;;8.67;;
18435;SDS011;9346;52.006;4.720;2023-03-20T04:32:11;18.17;;;9.60;;
18435;SDS011;9346;52.006;4.720;2023-03-20T04:34:38;16.73;;;8.23;;
18435;SDS011;9346;52.006;4.720;2023-03-20T04:37:06;23.20;;;9.53;;
18435;SDS011;9346;52.006;4.720;2023-03-20T04:39:33;19.57;;;9.40;;
18435;SDS011;9346;52.006;4.720;2023-03-20T04:42:03;16.67;;;9.23;;
18435;SDS011;9346;52.006;4.720;2023-03-20T04:44:31;18.00;;;9.47;;
18435;SDS011;9346;52.006;4.720;2023-03-20T04:46:58;22.87;;;9.93;;
18435;SDS011;9346;52.006;4.720;2023-03-20T04:49:26;25.17;;;10.73;;
18435;SDS011;9346;52.006;4.720;2023-03-20T04:51:53;16.80;;;9.53;;
18435;SDS011;9346;52.006;4.720;2023-03-20T04:54:20;19.27;;;9.67;;
18435;SDS011;9346;52.006;4.720;2023-03-20T04:56:47;20.27;;;10.60;;
18435;SDS011;9346;52.006;4.720;2023-03-20T04:59:16;25.33;;;12.00;;
18435;SDS011;9346;52.006;4.720;2023-03-20T05:01:43;27.73;;;10.70;;
18435;SDS011;9346;52.006;4.720;2023-03-20T05:04:10;18.27;;;10.73;;
18435;SDS011;9346;52.006;4.720;2023-03-20T05:06:37;24.17;;;10.80;;
18435;SDS011;9346;52.006;4.720;2023-03-20T05:09:04;20.13;;;10.27;;
18435;SDS011;9346;52.006;4.720;2023-03-20T05:11:31;23.80;;;9.93;;
18435;SDS011;9346;52.006;4.720;2023-03-20T05:13:58;19.20;;;11.43;;
18435;SDS011;9346;52.006;4.720;2023-03-20T05:16:26;19.70;;;10.43;;
18435;SDS011;9346;52.006;4.720;2023-03-20T05:18:53;23.47;;;11.10;;
18435;SDS011;9346;52.006;4.720;2023-03-20T05:21:20;18.47;;;10.17;;
18435;SDS011;9346;52.006;4.720;2023-03-20T05:23:47;20.37;;;11.93;;
18435;SDS011;9346;52.006;4.720;2023-03-20T05:26:14;22.40;;;12.47;;
18435;SDS011;9346;52.006;4.720;2023-03-20T05:28:40;18.57;;;10.80;;
18435;SDS011;9346;52.006;4.720;2023-03-20T05:31:07;27.00;;;11.23;;
18435;SDS011;9346;52.006;4.720;2023-03-20T05:33:36;20.63;;;11.17;;
18435;SDS011;9346;52.006;4.720;2023-03-20T05:36:04;24.63;;;10.27;;
18435;SDS011;9346;52.006;4.720;2023-03-20T05:38:32;15.93;;;10.40;;
18435;SDS011;9346;52.006;4.720;2023-03-20T05:40:59;28.97;;;11.40;;
18435;SDS011;9346;52.006;4.720;2023-03-20T05:43:27;26.17;;;11.63;;
18435;SDS011;9346;52.006;4.720;2023-03-20T05:45:54;21.50;;;11.87;;
18435;SDS011;9346;52.006;4.720;2023-03-20T05:48:21;23.73;;;11.87;;
18435;SDS011;9346;52.006;4.720;2023-03-20T05:50:50;17.53;;;10.97;;
18435;SDS011;9346;52.006;4.720;2023-03-20T05:53:17;24.13;;;11.67;;
18435;SDS011;9346;52.006;4.720;2023-03-20T05:55:44;24.93;;;12.37;;
18435;SDS011;9346;52.006;4.720;2023-03-20T05:58:11;25.33;;;12.03;;
18435;SDS011;9346;52.006;4.720;2023-03-20T06:00:38;20.33;;;11.10;;
18435;SDS011;9346;52.006;4.720;2023-03-20T06:03:05;25.13;;;11.30;;
18435;SDS011;9346;52.006;4.720;2023-03-20T06:05:33;25.07;;;10.90;;
18435;SDS011;9346;52.006;4.720;2023-03-20T06:08:02;23.93;;;10.67;;
18435;SDS011;9346;52.006;4.720;2023-03-20T06:10:29;21.87;;;10.33;;
18435;SDS011;9346;52.006;4.720;2023-03-20T06:12:56;21.73;;;9.93;;
18435;SDS011;9346;52.006;4.720;2023-03-20T06:15:25;16.13;;;9.63;;
18435;SDS011;9346;52.006;4.720;2023-03-20T06:17:54;30.67;;;10.80;;
18435;SDS011;9346;52.006;4.720;2023-03-20T06:20:21;23.07;;;10.73;;
18435;SDS011;9346;52.006;4.720;2023-03-20T06:22:48;31.03;;;10.50;;
18435;SDS011;9346;52.006;4.720;2023-03-20T06:25:17;16.00;;;9.90;;
18435;SDS011;9346;52.006;4.720;2023-03-20T06:27:44;24.83;;;10.93;;
18435;SDS011;9346;52.006;4.720;2023-03-20T06:30:12;18.53;;;10.27;;
18435;SDS011;9346;52.006;4.720;2023-03-20T06:32:40;21.27;;;9.90;;
18435;SDS011;9346;52.006;4.720;2023-03-20T06:35:07;21.17;;;10.20;;
18435;SDS011;9346;52.006;4.720;2023-03-20T06:37:35;26.00;;;10.43;;
18435;SDS011;9346;52.006;4.720;2023-03-20T06:40:02;19.50;;;10.00;;
18435;SDS011;9346;52.006;4.720;2023-03-20T06:42:30;24.40;;;9.87;;
18435;SDS011;9346;52.006;4.720;2023-03-20T06:44:57;21.33;;;9.13;;
18435;SDS011;9346;52.006;4.720;2023-03-20T06:47:24;17.17;;;9.73;;
18435;SDS011;9346;52.006;4.720;2023-03-20T06:49:51;19.47;;;8.77;;
18435;SDS011;9346;52.006;4.720;2023-03-20T06:52:19;18.77;;;8.73;;
18435;SDS011;9346;52.006;4.720;2023-03-20T06:54:47;20.73;;;8.93;;
18435;SDS011;9346;52.006;4.720;2023-03-20T06:57:15;16.07;;;8.60;;
18435;SDS011;9346;52.006;4.720;2023-03-20T06:59:44;16.63;;;8.30;;
18435;SDS011;9346;52.006;4.720;2023-03-20T07:02:11;21.70;;;9.07;;
18435;SDS011;9346;52.006;4.720;2023-03-20T07:04:40;15.57;;;8.83;;
18435;SDS011;9346;52.006;4.720;2023-03-20T07:07:06;20.57;;;8.53;;
18435;SDS011;9346;52.006;4.720;2023-03-20T07:09:34;12.00;;;8.17;;
18435;SDS011;9346;52.006;4.720;2023-03-20T07:12:01;20.17;;;7.90;;
18435;SDS011;9346;52.006;4.720;2023-03-20T07:14:28;18.93;;;8.90;;
18435;SDS011;9346;52.006;4.720;2023-03-20T07:16:57;19.00;;;7.77;;
18435;SDS011;9346;52.006;4.720;2023-03-20T07:19:24;12.17;;;7.57;;
18435;SDS011;9346;52.006;4.720;2023-03-20T07:21:52;15.63;;;7.40;;
18435;SDS011;9346;52.006;4.720;2023-03-20T07:24:25;12.80;;;7.30;;
18435;SDS011;9346;52.006;4.720;2023-03-20T07:26:53;16.00;;;7.27;;
18435;SDS011;9346;52.006;4.720;2023-03-20T07:29:20;14.80;;;7.47;;
18435;SDS011;9346;52.006;4.720;2023-03-20T07:31:47;15.07;;;7.43;;
18435;SDS011;9346;52.006;4.720;2023-03-20T07:34:17;19.67;;;6.90;;
18435;SDS011;9346;52.006;4.720;2023-03-20T07:36:43;12.87;;;6.73;;
18435;SDS011;9346;52.006;4.720;2023-03-20T07:39:10;18.03;;;6.80;;
18435;SDS011;9346;52.006;4.720;2023-03-20T07:41:39;14.03;;;6.17;;
18435;SDS011;9346;52.006;4.720;2023-03-20T07:44:06;17.70;;;6.20;;
18435;SDS011;9346;52.006;4.720;2023-03-20T07:46:34;16.13;;;6.37;;
18435;SDS011;9346;52.006;4.720;2023-03-20T07:49:01;14.50;;;6.17;;
18435;SDS011;9346;52.006;4.720;2023-03-20T07:51:32;14.20;;;6.20;;
18435;SDS011;9346;52.006;4.720;2023-03-20T07:53:59;19.83;;;7.10;;
18435;SDS011;9346;52.006;4.720;2023-03-20T07:56:26;16.37;;;6.60;;
18435;SDS011;9346;52.006;4.720;2023-03-20T07:58:53;13.20;;;5.87;;
18435;SDS011;9346;52.006;4.720;2023-03-20T08:01:20;18.50;;;7.27;;
18435;SDS011;9346;52.006;4.720;2023-03-20T08:03:47;13.03;;;5.60;;
18435;SDS011;9346;52.006;4.720;2023-03-20T08:06:14;13.37;;;5.77;;
18435;SDS011;9346;52.006;4.720;2023-03-20T08:08:42;15.37;;;5.47;;
18435;SDS011;9346;52.006;4.720;2023-03-20T08:11:09;17.23;;;6.57;;
18435;SDS011;9346;52.006;4.720;2023-03-20T08:13:39;13.30;;;6.73;;
18435;SDS011;9346;52.006;4.720;2023-03-20T08:16:06;18.47;;;5.70;;
18435;SDS011;9346;52.006;4.720;2023-03-20T08:18:33;9.37;;;5.67;;
18435;SDS011;9346;52.006;4.720;2023-03-20T08:21:01;13.77;;;6.50;;
18435;SDS011;9346;52.006;4.720;2023-03-20T08:23:27;9.07;;;5.33;;
18435;SDS011;9346;52.006;4.720;2023-03-20T08:25:56;14.63;;;5.70;;
18435;SDS011;9346;52.006;4.720;2023-03-20T08:28:22;14.27;;;5.07;;
18435;SDS011;9346;52.006;4.720;2023-03-20T08:30:49;12.53;;;4.83;;
18435;SDS011;9346;52.006;4.720;2023-03-20T08:33:16;9.20;;;4.43;;
18435;SDS011;9346;52.006;4.720;2023-03-20T08:35:53;9.53;;;5.20;;
18435;SDS011;9346;52.006;4.720;2023-03-20T08:38:21;12.80;;;4.87;;
18435;SDS011;9346;52.006;4.720;2023-03-20T08:40:48;12.47;;;4.23;;
18435;SDS011;9346;52.006;4.720;2023-03-20T08:43:17;9.67;;;4.43;;
18435;SDS011;9346;52.006;4.720;2023-03-20T08:45:44;10.17;;;4.60;;
18435;SDS011;9346;52.006;4.720;2023-03-20T08:48:10;10.07;;;4.23;;
18435;SDS011;9346;52.006;4.720;2023-03-20T08:50:38;9.60;;;5.07;;
18435;SDS011;9346;52.006;4.720;2023-03-20T08:53:05;10.13;;;5.03;;
18435;SDS011;9346;52.006;4.720;2023-03-20T08:55:32;17.40;;;4.63;;
18435;SDS011;9346;52.006;4.720;2023-03-20T08:57:59;11.20;;;4.77;;
18435;SDS011;9346;52.006;4.720;2023-03-20T09:00:28;12.53;;;4.17;;
18435;SDS011;9346;52.006;4.720;2023-03-20T09:02:55;12.33;;;5.20;;
18435;SDS011;9346;52.006;4.720;2023-03-20T09:05:22;13.53;;;5.30;;
18435;SDS011;9346;52.006;4.720;2023-03-20T09:07:48;16.87;;;5.83;;
18435;SDS011;9346;52.006;4.720;2023-03-20T09:10:15;12.97;;;6.70;;
18435;SDS011;9346;52.006;4.720;2023-03-20T09:12:43;11.20;;;5.47;;
18435;SDS011;9346;52.006;4.720;2023-03-20T09:15:10;10.60;;;5.53;;
18435;SDS011;9346;52.006;4.720;2023-03-20T09:17:38;11.93;;;5.83;;
18435;SDS011;9346;52.006;4.720;2023-03-20T09:20:07;19.13;;;6.47;;
18435;SDS011;9346;52.006;4.720;2023-03-20T09:22:34;17.03;;;5.80;;
18435;SDS011;9346;52.006;4.720;2023-03-20T09:25:05;21.73;;;7.03;;
18435;SDS011;9346;52.006;4.720;2023-03-20T09:27:33;23.60;;;7.07;;
18435;SDS011;9346;52.006;4.720;2023-03-20T09:30:00;15.67;;;6.87;;
18435;SDS011;9346;52.006;4.720;2023-03-20T09:32:27;13.20;;;6.00;;
18435;SDS011;9346;52.006;4.720;2023-03-20T09:34:56;17.10;;;5.87;;
18435;SDS011;9346;52.006;4.720;2023-03-20T09:37:23;20.80;;;6.57;;
18435;SDS011;9346;52.006;4.720;2023-03-20T09:39:50;23.17;;;6.40;;
18435;SDS011;9346;52.006;4.720;2023-03-20T09:42:20;11.60;;;5.37;;
18435;SDS011;9346;52.006;4.720;2023-03-20T09:44:56;14.33;;;6.90;;
18435;SDS011;9346;52.006;4.720;2023-03-20T09:47:31;16.77;;;6.50;;
18435;SDS011;9346;52.006;4.720;2023-03-20T09:50:10;20.60;;;6.27;;
18435;SDS011;9346;52.006;4.720;2023-03-20T09:52:49;23.50;;;7.40;;
18435;SDS011;9346;52.006;4.720;2023-03-20T09:55:22;13.43;;;6.70;;
18435;SDS011;9346;52.006;4.720;2023-03-20T09:57:56;16.93;;;7.67;;
18435;SDS011;9346;52.006;4.720;2023-03-20T10:00:28;15.17;;;7.63;;
18435;SDS011;9346;52.006;4.720;2023-03-20T10:03:00;17.60;;;7.77;;
18435;SDS011;9346;52.006;4.720;2023-03-20T10:05:31;19.23;;;7.93;;
18435;SDS011;9346;52.006;4.720;2023-03-20T10:08:04;18.13;;;8.53;;
18435;SDS011;9346;52.006;4.720;2023-03-20T10:10:36;18.10;;;8.67;;
18435;SDS011;9346;52.006;4.720;2023-03-20T10:13:24;18.33;;;7.87;;
18435;SDS011;9346;52.006;4.720;2023-03-20T10:16:00;26.17;;;8.90;;
18435;SDS011;9346;52.006;4.720;2023-03-20T10:18:34;17.90;;;8.50;;
18435;SDS011;9346;52.006;4.720;2023-03-20T10:21:09;21.03;;;9.63;;
18435;SDS011;9346;52.006;4.720;2023-03-20T10:23:44;21.30;;;9.80;;
18435;SDS011;9346;52.006;4.720;2023-03-20T10:26:19;18.73;;;9.37;;
18435;SDS011;9346;52.006;4.720;2023-03-20T10:28:50;18.40;;;8.47;;
18435;SDS011;9346;52.006;4.720;2023-03-20T10:31:22;19.00;;;9.67;;
18435;SDS011;9346;52.006;4.720;2023-03-20T10:34:01;16.53;;;9.50;;
18435;SDS011;9346;52.006;4.720;2023-03-20T10:36:45;13.53;;;8.50;;
18435;SDS011;9346;52.006;4.720;2023-03-20T10:39:30;22.80;;;9.80;;
18435;SDS011;9346;52.006;4.720;2023-03-20T10:42:12;18.83;;;10.27;;
18435;SDS011;9346;52.006;4.720;2023-03-20T10:44:43;22.00;;;9.80;;
18435;SDS011;9346;52.006;4.720;2023-03-20T10:47:15;16.83;;;10.03;;
18435;SDS011;9346;52.006;4.720;2023-03-20T10:49:48;15.30;;;9.10;;
18435;SDS011;9346;52.006;4.720;2023-03-20T10:52:20;19.83;;;9.60;;
18435;SDS011;9346;52.006;4.720;2023-03-20T10:54:52;14.80;;;9.40;;
18435;SDS011;9346;52.006;4.720;2023-03-20T10:57:23;15.93;;;8.93;;
18435;SDS011;9346;52.006;4.720;2023-03-20T10:59:51;26.77;;;9.73;;
18435;SDS011;9346;52.006;4.720;2023-03-20T11:02:23;17.07;;;9.23;;
18435;SDS011;9346;52.006;4.720;2023-03-20T11:04:51;20.03;;;9.50;;
18435;SDS011;9346;52.006;4.720;2023-03-20T11:07:20;21.17;;;11.03;;
18435;SDS011;9346;52.006;4.720;2023-03-20T11:12:38;19.27;;;9.20;;
18435;SDS011;9346;52.006;4.720;2023-03-20T11:15:13;21.20;;;9.57;;
18435;SDS011;9346;52.006;4.720;2023-03-20T11:17:49;22.57;;;10.53;;
18435;SDS011;9346;52.006;4.720;2023-03-20T11:20:18;19.77;;;9.43;;
18435;SDS011;9346;52.006;4.720;2023-03-20T11:22:47;24.43;;;10.07;;
18435;SDS011;9346;52.006;4.720;2023-03-20T11:25:21;16.43;;;8.60;;
18435;SDS011;9346;52.006;4.720;2023-03-20T11:27:54;14.20;;;9.30;;
18435;SDS011;9346;52.006;4.720;2023-03-20T11:30:21;19.87;;;9.80;;
18435;SDS011;9346;52.006;4.720;2023-03-20T11:32:49;20.47;;;9.93;;
18435;SDS011;9346;52.006;4.720;2023-03-20T11:35:20;17.37;;;9.40;;
18435;SDS011;9346;52.006;4.720;2023-03-20T11:38:06;30.27;;;11.10;;
18435;SDS011;9346;52.006;4.720;2023-03-20T11:40:36;18.57;;;9.87;;
18435;SDS011;9346;52.006;4.720;2023-03-20T11:43:07;22.30;;;10.10;;
18435;SDS011;9346;52.006;4.720;2023-03-20T11:45:37;22.43;;;9.57;;
18435;SDS011;9346;52.006;4.720;2023-03-20T11:48:13;24.27;;;9.40;;
18435;SDS011;9346;52.006;4.720;2023-03-20T11:50:43;18.97;;;9.70;;
18435;SDS011;9346;52.006;4.720;2023-03-20T11:53:21;17.27;;;9.23;;
18435;SDS011;9346;52.006;4.720;2023-03-20T11:56:02;22.03;;;9.13;;
18435;SDS011;9346;52.006;4.720;2023-03-20T11:58:32;14.40;;;8.67;;
18435;SDS011;9346;52.006;4.720;2023-03-20T12:01:02;15.37;;;8.60;;
18435;SDS011;9346;52.006;4.720;2023-03-20T12:03:41;21.63;;;10.07;;
18435;SDS011;9346;52.006;4.720;2023-03-20T12:06:15;15.83;;;9.37;;
18435;SDS011;9346;52.006;4.720;2023-03-20T12:08:47;19.53;;;8.87;;
18435;SDS011;9346;52.006;4.720;2023-03-20T12:11:21;17.50;;;9.43;;
18435;SDS011;9346;52.006;4.720;2023-03-20T12:13:57;20.33;;;9.40;;
18435;SDS011;9346;52.006;4.720;2023-03-20T12:16:26;22.03;;;9.07;;
18435;SDS011;9346;52.006;4.720;2023-03-20T12:18:56;21.27;;;9.70;;
18435;SDS011;9346;52.006;4.720;2023-03-20T12:21:29;21.20;;;9.33;;
18435;SDS011;9346;52.006;4.720;2023-03-20T12:24:03;19.47;;;8.87;;
18435;SDS011;9346;52.006;4.720;2023-03-20T12:26:41;17.13;;;10.43;;
18435;SDS011;9346;52.006;4.720;2023-03-20T12:29:15;17.43;;;8.00;;
18435;SDS011;9346;52.006;4.720;2023-03-20T12:31:50;19.57;;;9.27;;
18435;SDS011;9346;52.006;4.720;2023-03-20T12:34:22;17.27;;;7.83;;
18435;SDS011;9346;52.006;4.720;2023-03-20T12:36:52;18.83;;;8.93;;
18435;SDS011;9346;52.006;4.720;2023-03-20T12:39:23;12.00;;;7.97;;
18435;SDS011;9346;52.006;4.720;2023-03-20T12:41:57;21.07;;;8.20;;
18435;SDS011;9346;52.006;4.720;2023-03-20T12:44:38;18.27;;;7.77;;
18435;SDS011;9346;52.006;4.720;2023-03-20T12:47:27;19.93;;;8.97;;
18435;SDS011;9346;52.006;4.720;2023-03-20T12:50:08;14.47;;;8.10;;
18435;SDS011;9346;52.006;4.720;2023-03-20T12:52:42;15.00;;;8.50;;
18435;SDS011;9346;52.006;4.720;2023-03-20T12:55:22;27.33;;;9.87;;
18435;SDS011;9346;52.006;4.720;2023-03-20T12:58:00;15.27;;;7.93;;
18435;SDS011;9346;52.006;4.720;2023-03-20T13:00:37;17.27;;;8.03;;
18435;SDS011;9346;52.006;4.720;2023-03-20T13:03:15;17.03;;;8.63;;
18435;SDS011;9346;52.006;4.720;2023-03-20T13:05:51;19.03;;;9.73;;
18435;SDS011;9346;52.006;4.720;2023-03-20T13:08:32;27.63;;;9.03;;
18435;SDS011;9346;52.006;4.720;2023-03-20T13:11:15;19.80;;;9.07;;
18435;SDS011;9346;52.006;4.720;2023-03-20T13:13:51;19.43;;;8.57;;
18435;SDS011;9346;52.006;4.720;2023-03-20T13:16:23;22.47;;;10.33;;
18435;SDS011;9346;52.006;4.720;2023-03-20T13:19:00;20.20;;;10.20;;
18435;SDS011;9346;52.006;4.720;2023-03-20T13:21:33;13.67;;;8.00;;
18435;SDS011;9346;52.006;4.720;2023-03-20T13:24:12;18.83;;;9.63;;
18435;SDS011;9346;52.006;4.720;2023-03-20T13:26:51;13.33;;;8.33;;
18435;SDS011;9346;52.006;4.720;2023-03-20T13:29:26;16.13;;;8.23;;
18435;SDS011;9346;52.006;4.720;2023-03-20T13:32:02;15.13;;;8.70;;
18435;SDS011;9346;52.006;4.720;2023-03-20T13:34:45;18.83;;;8.80;;
18435;SDS011;9346;52.006;4.720;2023-03-20T13:37:26;16.80;;;9.23;;
18435;SDS011;9346;52.006;4.720;2023-03-20T13:40:02;12.87;;;9.10;;
18435;SDS011;9346;52.006;4.720;2023-03-20T13:42:36;26.30;;;9.73;;
18435;SDS011;9346;52.006;4.720;2023-03-20T13:45:18;19.27;;;9.37;;
18435;SDS011;9346;52.006;4.720;2023-03-20T13:47:51;21.87;;;9.63;;
18435;SDS011;9346;52.006;4.720;2023-03-20T13:50:24;17.70;;;9.23;;
18435;SDS011;9346;52.006;4.720;2023-03-20T13:53:00;19.93;;;9.20;;
18435;SDS011;9346;52.006;4.720;2023-03-20T13:55:36;13.60;;;9.07;;
18435;SDS011;9346;52.006;4.720;2023-03-20T13:58:16;21.57;;;9.23;;
18435;SDS011;9346;52.006;4.720;2023-03-20T14:01:01;26.43;;;10.50;;
18435;SDS011;9346;52.006;4.720;2023-03-20T14:03:34;14.30;;;8.60;;
18435;SDS011;9346;52.006;4.720;2023-03-20T14:06:14;21.77;;;9.37;;
18435;SDS011;9346;52.006;4.720;2023-03-20T14:08:46;21.77;;;10.30;;
18435;SDS011;9346;52.006;4.720;2023-03-20T14:11:24;20.93;;;10.83;;
18435;SDS011;9346;52.006;4.720;2023-03-20T14:13:59;15.50;;;9.77;;
18435;SDS011;9346;52.006;4.720;2023-03-20T14:16:32;13.27;;;8.43;;
18435;SDS011;9346;52.006;4.720;2023-03-20T14:19:03;17.47;;;9.20;;
18435;SDS011;9346;52.006;4.720;2023-03-20T14:21:32;17.17;;;10.00;;
18435;SDS011;9346;52.006;4.720;2023-03-20T14:24:01;14.87;;;9.77;;
18435;SDS011;9346;52.006;4.720;2023-03-20T14:26:31;18.70;;;10.87;;
18435;SDS011;9346;52.006;4.720;2023-03-20T14:32:01;22.33;;;9.83;;
18435;SDS011;9346;52.006;4.720;2023-03-20T14:34:43;20.30;;;11.83;;
18435;SDS011;9346;52.006;4.720;2023-03-20T14:37:25;18.70;;;9.87;;
18435;SDS011;9346;52.006;4.720;2023-03-20T14:39:57;19.63;;;11.53;;
18435;SDS011;9346;52.006;4.720;2023-03-20T14:42:36;27.63;;;11.23;;
18435;SDS011;9346;52.006;4.720;2023-03-20T14:45:24;23.00;;;11.83;;
18435;SDS011;9346;52.006;4.720;2023-03-20T14:48:02;22.47;;;11.07;;
18435;SDS011;9346;52.006;4.720;2023-03-20T14:50:35;20.33;;;11.40;;
18435;SDS011;9346;52.006;4.720;2023-03-20T14:53:14;20.80;;;10.50;;
18435;SDS011;9346;52.006;4.720;2023-03-20T14:55:47;19.53;;;12.17;;
18435;SDS011;9346;52.006;4.720;2023-03-20T14:58:32;23.60;;;11.37;;
18435;SDS011;9346;52.006;4.720;2023-03-20T15:01:08;25.73;;;11.93;;
18435;SDS011;9346;52.006;4.720;2023-03-20T15:03:41;26.63;;;11.97;;
18435;SDS011;9346;52.006;4.720;2023-03-20T15:06:09;20.73;;;11.70;;
18435;SDS011;9346;52.006;4.720;2023-03-20T15:08:41;28.33;;;11.33;;
18435;SDS011;9346;52.006;4.720;2023-03-20T15:11:12;26.37;;;11.57;;
18435;SDS011;9346;52.006;4.720;2023-03-20T15:13:40;23.10;;;11.03;;
18435;SDS011;9346;52.006;4.720;2023-03-20T15:16:11;22.33;;;12.00;;
18435;SDS011;9346;52.006;4.720;2023-03-20T15:18:41;17.77;;;10.73;;
18435;SDS011;9346;52.006;4.720;2023-03-20T15:21:13;20.93;;;11.07;;
18435;SDS011;9346;52.006;4.720;2023-03-20T15:23:41;29.17;;;11.97;;